Nephi, UT

12:12 AM MDT on August 22, 2014 (GMT -0600)
Heber | Change Station
CLOSE
Current Station
Airport
Location: Heber,
Elevation: 5636 ft
Nearby Weather Stations

Elev 5636 ft 40.48 °N, 111.43 °W | Updated 17 minutes ago

Clear
Clear
54 °F
Feels Like 54 °F
N
5
Wind Variable Wind from South

Today
High -- | Low -- °F
--% Chance of Precip.
Yesterday
High -- | Low -- °F
Precip. -- in
6:46 AM 8:13 PM
Waning Crescent, 10% visible
Pressure 30.12 in
Visibility 10.0 miles
Clouds Clear
Dew Point 46 °F
Humidity 77%
Rainfall 0.00 in
Snow Depth Not available.
UV 0 out of 12
Pollen 7.80 out of 12
Air Quality Not available.
Flu Activity Not available.
METAR K36U 220555Z AUTO 17004KT 10SM CLR 12/08 A3012 RMK AO2

More Conditions Fewer Conditions

Pressure 30.12 in
Visibility 10.0 miles
Clouds Clear
Dew Point 46 °F
Humidity 77%
Rainfall 0.00 in
Snow Depth Not available.
UV 0 out of 12
Pollen 7.80 out of 12
Air Quality Not available.
Flu Activity Not available.
METAR K36U 220555Z AUTO 17004KT 10SM CLR 12/08 A3012 RMK AO2

More Conditions Fewer Conditions

10-Day Weather Forecast

Almanac

Astronomy

Aug. 22, 2014 Rise Set
Actual Time 6:46 AM MDT 8:13 PM MDT
Civil Twilight 6:17 AM MDT 8:41 PM MDT
Nautical Twilight 5:43 AM MDT 9:15 PM MDT
Astronomical Twilight 5:07 AM MDT 9:51 PM MDT
Moon 4:12 AM MDT 6:24 PM MDT
Length of Visible Light 14h 23m
Length of Day
13h 27m
Tomorrow will be 2m 24s shorter.
Waning Crescent, 10% of the Moon is Illuminated
Today
Waning Crescent
Aug 25
New
Sep 2
First Quarter
Sep 8
Full
Sep 15
Last Quarter

Today's Extremes

State Highs State Lows

Community

WunderPhotos

Upload Photos

1,746,131 photos uploaded!

Nearby

Snow Depth

Station Depth Elevation
Clear Creek #2 1 in 8300 ft
Seeley Creek 0 in 10000 ft
Cascade Mountain 0 in 7768 ft
Strawberry Divide 0 in 8400 ft
Daniels-Strawberry 0 in 8000 ft

Earthquake Activity

City Distance Mag. Time & Date
No recent earthquake activity has been reported nearby.
Minimum magnitude displayed is 2.5.

Coastal Water Temperatures

Place Temperature
No Stations Reporting

Nearby Weather Stations